Terminal Aerodrome Forecast
Issued by NWS Twin Cities, MN

Home | Current Version | Previous Version | Text Only | Print | Product List | Glossary On
Versions: 1 2 3 4 5 6 7 8 9 10 11 12 13 14 15 16 17 18 19 20
000
FTUS43 KMPX 281120
TAFSTC
TAF
KSTC 281120Z 2812/2912 18005KT P6SM SCT007 OVC200
      TEMPO 2812/2814 3SM BR BKN015
     FM281600 18008KT P6SM SCT030 BKN050
     FM290000 17004KT P6SM BKN250
      TEMPO 2908/2911 6SM BR=

USA.gov is the U.S. government's official web portal to all federal, state and local government web resources and services.